F/V Atalante — FVRQ — position and weather

sailwx.info

Track history (hours):
 
Tides and Currents Weather Stations Pressure Air Temp Water Temp Dewpoint Dewpoint Depression Visibility Wind Speed Wind Dir Waves Ship Positions

F/V Atalante

Last reported at 2016-Nov-01 03:33 UTC. Time now 2016-Dec-04 06:11 UTC.
Position N 47°21' W 002°31'.
Warning: this ship's position is 33 days out of date.

Length 21 m; draft 3.9 m.

Type: . MMSI: 228854000.

Date/timePositionNaut miles runAvg speedWind from/ knotsBaromVisibWave heightAir tempDewpointWater temp
2016-Nov-01 03:33N 47°21' W 002°31'0 0.0
2016-Nov-01 02:34N 47°21' W 002°31'2 1.2
2016-Nov-01 00:33N 47°20' W 002°34'1010.2
2016-Oct-31 23:33N 47°16' W 002°48'1010.1
2016-Oct-31 22:34N 47°08' W 002°57'20 9.8
2016-Oct-31 20:34N 46°51' W 003°12'9 9.4
2016-Oct-31 19:33N 46°44' W 003°21'1010.0
2016-Oct-31 18:33N 46°35' W 003°28'77 9.6
2016-Oct-31 10:33N 45°27' W 004°21'10 9.9
2016-Oct-31 09:33N 45°18' W 004°27'  
Track history (hours):
 
Tides and Currents Weather Stations Pressure Air Temp Water Temp Dewpoint Dewpoint Depression Visibility Wind Speed Wind Dir Waves Ship Positions

F/V Atalante

Last reported at 2016-Nov-01 03:33 UTC. Time now 2016-Dec-04 06:11 UTC.
Position N 47°21' W 002°31'.
Warning: this ship's position is 33 days out of date.

Length 21 m; draft 3.9 m.

Type: . MMSI: 228854000.

Date/timePositionNaut miles runAvg speedWind from/ knotsBaromVisibWave heightAir tempDewpointWater temp
2016-Nov-01 03:33N 47°21' W 002°31'0 0.0
2016-Nov-01 02:34N 47°21' W 002°31'2 1.2
2016-Nov-01 00:33N 47°20' W 002°34'1010.2
2016-Oct-31 23:33N 47°16' W 002°48'1010.1
2016-Oct-31 22:34N 47°08' W 002°57'20 9.8
2016-Oct-31 20:34N 46°51' W 003°12'9 9.4
2016-Oct-31 19:33N 46°44' W 003°21'1010.0
2016-Oct-31 18:33N 46°35' W 003°28'77 9.6
2016-Oct-31 10:33N 45°27' W 004°21'10 9.9
2016-Oct-31 09:33N 45°18' W 004°27'  

Dump ship's entire track history